Bob Hope Airport
KBUR : now visible

Airfield :











YOU CAN JOIN US ON...

 
LOGIN :

Register | Disclaimer

   EN    FR    IT 

 









Legend :    VFR   Marginal VFR   IFR   Intensive IFR   Very Intensive IFR
Visi :
Ceiling :
>= 8 km
>= 3000ft
5 to 8 km
1000 to 3000 ft
1500m to 5 km
500 to 1000 ft
800 to 1500m
200 to 500 ft
< 800m
< 200 ft
Symbols :   Thunderstorms  Fog  Heavy snow  Heavy precipitations  Wind > 20 kt






- Airport Elevation : 778 ft
- IATA code : BUR


KBUR - Bob Hope

CURRENT METAR :
  • 230053Z 16007KT 10SM CLR 30/14 A2979 RMK AO2 SLP075 T03000139

EXPIRED METARs :
  • 222353Z 17010KT 10SM CLR 32/14 A2980 RMK AO2 SLP076 T03170144 10339 20311 56014
  • 222253Z 17008KT 10SM CLR 33/12 A2981 RMK AO2 SLP079 T03330117
  • 222153Z 17008KT 10SM CLR 34/13 A2983 RMK AO2 SLP085 T03390133
  • 222053Z 18009KT 10SM CLR 34/14 A2984 RMK AO2 SLP090 T03390139 58009

TAF KBUR
Valid from the 23 at 00:00 until the 24 at 00:00 UTC


222346Z 2300/2324 16008KT P6SM SKC
FM230300 13006KT P6SM FEW150
FM230600 VRB03KT P6SM SCT150
FM231900 17010KT P6SM SKC
KZLA FIR / North America



MET'MAP, your aeronautical weather chart ! - Copyright ORBIFLY December 2007 - Disclaimer

ORBIFLY MET'MAP TEAM :

Programming & Development : Alexandra Zaïnal
Original concept : Baudouin d'Aumeries
Technical & hardware support : Manuel Goepfert
Assistance : Marc-Olivier Méhu




SOURCES & CREDITS :

   NOAA       Earth
Advisory